Time;durP1;ratioP1;P1;durP2;ratioP2;P2;SDS_P1;SDS_P2;PMS_P1;PMS_P2;Temp;Humidity;BMP_temperature;BMP_pressure;BME280_temperature;BME280_humidity;BME280_pressure;Samples;Min_cycle;Max_cycle;Signal;HPM_P1;HPM_P2
2023/01/02 00:00:10;;;;;;;7.13;3.20;;;;;;;12.70;100.00;100408.75;688175;28;1569;-62
2023/01/02 00:00:33;;;;;;;7.28;3.10;;;;;;;12.65;100.00;100408.81;687756;28;1454;-62
2023/01/02 00:00:54;;;;;;;8.57;3.55;;;;;;;12.63;100.00;100409.72;687523;28;4379;-62
2023/01/02 00:01:15;;;;;;;8.65;3.95;;;;;;;12.60;100.00;100415.91;688000;28;1315;-63
2023/01/02 00:01:36;;;;;;;9.07;3.92;;;;;;;12.55;100.00;100415.97;685975;28;1536;-64
2023/01/02 00:01:56;;;;;;;8.20;3.63;;;;;;;12.55;100.00;100415.97;685164;28;1374;-63
2023/01/02 00:02:16;;;;;;;8.33;3.50;;;;;;;12.55;100.00;100409.88;684770;28;1510;-62
2023/01/02 00:02:37;;;;;;;8.93;3.33;;;;;;;12.52;100.00;100416.03;686180;28;1290;-63
2023/01/02 00:02:57;;;;;;;11.13;3.33;;;;;;;12.60;100.00;100416.75;686945;28;1430;-64
2023/01/02 00:03:17;;;;;;;10.63;3.30;;;;;;;12.65;100.00;100407.97;689219;28;1609;-62
2023/01/02 00:03:38;;;;;;;8.85;3.22;;;;;;;12.64;100.00;100414.09;689128;28;1414;-64
2023/01/02 00:03:58;;;;;;;9.60;3.30;;;;;;;12.60;100.00;100411.53;686293;28;4558;-63
2023/01/02 00:04:19;;;;;;;9.35;3.40;;;;;;;12.63;100.00;100412.34;690005;28;1309;-64
2023/01/02 00:04:39;;;;;;;8.73;3.43;;;;;;;12.60;100.00;100406.28;687448;28;1306;-64
2023/01/02 00:05:00;;;;;;;8.30;3.45;;;;;;;12.56;100.00;100401.97;687109;28;1547;-64
2023/01/02 00:05:20;;;;;;;8.90;3.33;;;;;;;12.57;100.00;100406.34;684161;28;3391;-64
2023/01/02 00:05:40;;;;;;;8.03;3.43;;;;;;;12.55;100.00;100405.47;688747;28;2063;-64
2023/01/02 00:06:02;;;;;;;9.88;3.22;;;;;;;12.54;100.00;100410.75;687423;28;2419;-64
2023/01/02 00:06:23;;;;;;;9.15;3.20;;;;;;;12.57;100.00;100406.34;684171;28;2506;-63
2023/01/02 00:06:44;;;;;;;8.45;3.30;;;;;;;12.53;100.00;100411.63;684378;28;4384;-64
2023/01/02 00:07:04;;;;;;;8.57;3.20;;;;;;;12.51;100.00;100397.69;684515;28;1378;-64
2023/01/02 00:07:24;;;;;;;7.50;3.30;;;;;;;12.51;100.00;100403.81;684924;28;1220;-63
2023/01/02 00:07:45;;;;;;;9.63;3.13;;;;;;;12.50;100.00;100409.97;684735;28;1604;-63
2023/01/02 00:08:05;;;;;;;8.83;3.30;;;;;;;12.47;100.00;100407.38;685691;28;1378;-64
2023/01/02 00:08:25;;;;;;;8.20;3.10;;;;;;;12.57;100.00;100403.72;688251;28;1439;-64
2023/01/02 00:08:46;;;;;;;8.03;3.03;;;;;;;12.56;100.00;100407.22;688616;28;1357;-64
2023/01/02 00:09:07;;;;;;;7.35;3.00;;;;;;;12.60;100.00;100402.81;687987;28;1419;-64
2023/01/02 00:09:27;;;;;;;7.53;2.97;;;;;;;12.56;100.00;100406.38;688431;28;1286;-62
2023/01/02 00:09:48;;;;;;;9.07;3.43;;;;;;;12.51;100.00;100401.19;688313;28;4348;-63
2023/01/02 00:10:08;;;;;;;8.77;3.28;;;;;;;12.48;100.00;100405.63;687807;28;1188;-63
2023/01/02 00:10:29;;;;;;;8.67;3.10;;;;;;;12.50;100.00;100399.47;687351;28;1803;-65
2023/01/02 00:10:49;;;;;;;9.60;3.60;;;;;;;12.47;100.00;100409.13;688079;28;1669;-63
2023/01/02 00:11:09;;;;;;;8.27;3.83;;;;;;;12.48;100.00;100410.88;687852;28;1326;-63
2023/01/02 00:11:30;;;;;;;7.87;3.43;;;;;;;12.62;100.00;100416.75;686600;28;1542;-64
2023/01/02 00:11:50;;;;;;;7.10;3.70;;;;;;;12.67;100.00;100409.66;685812;28;1299;-65
2023/01/02 00:12:10;;;;;;;7.97;3.07;;;;;;;12.69;100.00;100415.72;687205;28;1393;-62
2023/01/02 00:12:31;;;;;;;8.30;2.88;;;;;;;12.63;100.00;100409.72;687971;28;1322;-64
2023/01/02 00:12:52;;;;;;;7.47;3.08;;;;;;;12.68;100.00;100410.50;687344;28;4511;-62
2023/01/02 00:13:13;;;;;;;6.87;3.00;;;;;;;12.70;100.00;100414.84;688275;28;1493;-64
2023/01/02 00:13:33;;;;;;;8.60;3.13;;;;;;;12.66;100.00;100412.31;688127;28;1730;-63
2023/01/02 00:13:53;;;;;;;8.10;3.35;;;;;;;12.64;100.00;100414.09;688321;28;1504;-63
2023/01/02 00:14:14;;;;;;;7.33;3.33;;;;;;;12.67;100.00;100411.41;686870;28;1761;-63
2023/01/02 00:14:34;;;;;;;8.23;3.20;;;;;;;12.64;100.00;100406.22;687941;28;1846;-64
2023/01/02 00:14:55;;;;;;;8.00;3.25;;;;;;;12.66;100.00;100407.06;688302;28;1234;-64
2023/01/02 00:15:15;;;;;;;8.47;3.30;;;;;;;12.64;100.00;100403.59;687251;28;1305;-62
2023/01/02 00:15:35;;;;;;;7.55;3.15;;;;;;;12.61;100.00;100407.13;687874;28;1438;-62
2023/01/02 00:15:58;;;;;;;10.38;3.25;;;;;;;12.55;100.00;100404.63;687714;28;4705;-63
2023/01/02 00:16:18;;;;;;;8.82;3.25;;;;;;;12.61;100.00;100415.00;687904;28;1294;-64
2023/01/02 00:16:39;;;;;;;9.47;3.33;;;;;;;12.64;100.00;100412.34;688904;28;1502;-64
2023/01/02 00:16:59;;;;;;;8.90;3.20;;;;;;;12.65;100.00;100415.81;688135;28;1525;-64
2023/01/02 00:17:20;;;;;;;7.57;3.30;;;;;;;12.62;100.00;100406.25;689212;28;1307;-64
2023/01/02 00:17:40;;;;;;;7.83;3.40;;;;;;;12.72;100.00;100412.19;688518;28;1922;-64
2023/01/02 00:18:01;;;;;;;10.03;3.43;;;;;;;12.64;100.00;100404.47;688570;28;1341;-64
2023/01/02 00:18:21;;;;;;;8.55;3.20;;;;;;;12.59;100.00;100396.66;688137;28;1293;-63
2023/01/02 00:18:41;;;;;;;7.70;3.57;;;;;;;12.58;100.00;100405.41;687887;28;5342;-63
2023/01/02 00:19:02;;;;;;;9.05;3.80;;;;;;;12.63;100.00;100401.84;688255;28;1240;-63
2023/01/02 00:19:23;;;;;;;7.28;3.30;;;;;;;12.59;100.00;100398.44;688924;28;1477;-64
2023/01/02 00:19:43;;;;;;;6.17;3.10;;;;;;;12.58;100.00;100407.19;688082;28;1461;-63
2023/01/02 00:20:04;;;;;;;7.38;3.30;;;;;;;12.57;100.00;100413.31;688465;28;1287;-64
2023/01/02 00:20:25;;;;;;;9.13;3.22;;;;;;;12.62;100.00;100405.38;688024;28;978;-63
2023/01/02 00:20:45;;;;;;;8.47;3.03;;;;;;;12.68;100.00;100415.75;688970;28;1266;-63
2023/01/02 00:21:06;;;;;;;8.80;3.15;;;;;;;12.78;100.00;100409.47;687952;28;1287;-65
2023/01/02 00:21:26;;;;;;;9.67;3.53;;;;;;;12.81;100.00;100401.53;688628;28;1604;-64
2023/01/02 00:21:46;;;;;;;10.67;3.57;;;;;;;12.81;100.00;100404.16;687719;28;4386;-64
2023/01/02 00:22:07;;;;;;;9.87;3.23;;;;;;;12.87;100.00;100401.41;687284;28;1290;-64
2023/01/02 00:22:27;;;;;;;7.18;3.30;;;;;;;12.96;100.00;100413.53;688356;28;1489;-63
2023/01/02 00:22:48;;;;;;;8.63;3.80;;;;;;;12.93;100.00;100405.69;688602;28;1531;-63
2023/01/02 00:23:08;;;;;;;9.65;3.63;;;;;;;12.93;100.00;100406.56;689335;28;1591;-61
2023/01/02 00:23:29;;;;;;;9.27;3.20;;;;;;;12.91;100.00;100407.50;687964;28;1446;-65
2023/01/02 00:23:49;;;;;;;11.30;3.45;;;;;;;12.89;100.00;100404.91;688607;28;1741;-64
2023/01/02 00:24:10;;;;;;;7.20;3.27;;;;;;;12.85;100.00;100410.22;687860;28;1334;-63
2023/01/02 00:24:30;;;;;;;7.07;3.05;;;;;;;12.77;100.00;100413.84;687798;28;1459;-63
2023/01/02 00:24:51;;;;;;;8.23;3.30;;;;;;;12.74;100.00;100415.66;684343;28;4484;-65
2023/01/02 00:25:11;;;;;;;8.25;3.20;;;;;;;12.72;100.00;100409.56;684940;28;1563;-64
2023/01/02 00:25:33;;;;;;;8.67;3.13;;;;;;;12.72;100.00;100401.69;685327;28;1509;-64
2023/01/02 00:25:53;;;;;;;8.95;3.10;;;;;;;12.72;100.00;100406.94;683875;28;1737;-64
2023/01/02 00:26:14;;;;;;;9.85;3.35;;;;;;;12.69;100.00;100409.63;686058;28;1667;-65
2023/01/02 00:26:34;;;;;;;8.57;3.30;;;;;;;12.77;100.00;100415.59;687256;28;1531;-64
2023/01/02 00:26:55;;;;;;;7.35;3.13;;;;;;;12.75;100.00;100413.03;689412;28;1435;-65
2023/01/02 00:27:15;;;;;;;6.97;3.23;;;;;;;12.74;100.00;100406.03;685510;28;1595;-62
2023/01/02 00:27:36;;;;;;;7.28;3.33;;;;;;;12.82;100.00;100405.03;685322;28;1538;-63
2023/01/02 00:27:56;;;;;;;8.47;3.20;;;;;;;12.81;100.00;100411.16;684213;28;5299;-63
2023/01/02 00:28:17;;;;;;;8.38;3.30;;;;;;;12.75;100.00;100413.03;684513;28;1479;-64
2023/01/02 00:28:37;;;;;;;8.40;3.40;;;;;;;12.69;100.00;100407.88;684699;28;1454;-63
2023/01/02 00:28:58;;;;;;;7.90;3.70;;;;;;;12.64;100.00;100403.59;682065;28;1660;-63
2023/01/02 00:29:18;;;;;;;7.28;3.42;;;;;;;12.72;100.00;100406.94;681928;28;1241;-64
2023/01/02 00:29:39;;;;;;;9.30;3.30;;;;;;;12.74;100.00;100400.78;685488;28;1605;-64
2023/01/02 00:29:59;;;;;;;9.63;3.58;;;;;;;12.72;100.00;100397.34;683649;28;1445;-63
2023/01/02 00:30:19;;;;;;;10.03;3.30;;;;;;;12.70;100.00;100399.09;688676;28;1338;-64
2023/01/02 00:30:40;;;;;;;8.53;3.17;;;;;;;12.79;100.00;100398.06;687450;28;4631;-63
2023/01/02 00:31:08;;;;;;;9.20;3.42;;;;;;;12.82;100.00;100398.03;687847;28;1330;-62
2023/01/02 00:31:29;;;;;;;7.40;3.40;;;;;;;12.84;100.00;100400.63;688043;28;1548;-64
2023/01/02 00:31:49;;;;;;;8.45;3.30;;;;;;;12.80;100.00;100397.19;689466;28;1362;-63
2023/01/02 00:32:10;;;;;;;10.13;3.50;;;;;;;12.77;100.00;100405.13;687497;28;1641;-64
2023/01/02 00:32:30;;;;;;;9.50;3.65;;;;;;;12.74;100.00;100400.78;687637;28;1456;-64
2023/01/02 00:32:50;;;;;;;9.27;3.50;;;;;;;12.74;100.00;100403.41;688223;28;1376;-62
2023/01/02 00:33:11;;;;;;;9.15;3.45;;;;;;;12.73;100.00;100401.66;688180;28;1571;-63
2023/01/02 00:33:31;;;;;;;8.63;3.67;;;;;;;12.70;100.00;100403.50;687774;28;1775;-62
2023/01/02 00:33:51;;;;;;;9.67;3.57;;;;;;;12.67;100.00;100403.53;687107;28;4581;-64
2023/01/02 00:34:12;;;;;;;8.20;3.28;;;;;;;12.63;100.00;100402.75;687284;28;1589;-64
2023/01/02 00:34:32;;;;;;;8.20;3.20;;;;;;;12.68;100.00;100410.50;688290;28;1488;-63
2023/01/02 00:34:53;;;;;;;7.50;3.30;;;;;;;12.72;100.00;100397.34;688215;28;1563;-63
2023/01/02 00:35:13;;;;;;;8.43;3.33;;;;;;;12.78;100.00;100394.59;684772;28;1327;-64
2023/01/02 00:35:36;;;;;;;9.25;3.05;;;;;;;12.81;100.00;100398.94;688149;28;1432;-63
2023/01/02 00:35:56;;;;;;;8.95;3.22;;;;;;;12.79;100.00;100398.06;688345;28;1395;-63
2023/01/02 00:36:17;;;;;;;10.57;3.20;;;;;;;12.84;100.00;100391.00;687746;28;1598;-63
2023/01/02 00:36:37;;;;;;;9.13;2.90;;;;;;;12.90;100.00;100396.13;687383;28;1662;-63
2023/01/02 00:36:57;;;;;;;8.83;2.93;;;;;;;12.94;100.00;100389.06;687476;28;4749;-63
2023/01/02 00:37:18;;;;;;;10.43;3.13;;;;;;;12.90;100.00;100396.13;687844;28;1278;-63
2023/01/02 00:37:38;;;;;;;9.75;3.30;;;;;;;12.84;100.00;100390.13;688707;28;1915;-64
2023/01/02 00:37:58;;;;;;;6.80;3.20;;;;;;;12.79;100.00;100390.19;687073;28;1362;-65
2023/01/02 00:38:19;;;;;;;6.83;3.40;;;;;;;12.79;100.00;100387.56;686994;28;1307;-62
2023/01/02 00:38:40;;;;;;;6.85;3.08;;;;;;;12.77;100.00;100392.84;688858;28;4856;-64
2023/01/02 00:39:00;;;;;;;8.63;3.10;;;;;;;12.84;100.00;100395.38;687534;28;1326;-63
2023/01/02 00:39:20;;;;;;;8.07;3.10;;;;;;;12.81;100.00;100396.31;688736;28;1357;-62
2023/01/02 00:39:41;;;;;;;6.65;3.20;;;;;;;12.88;100.00;100390.03;687599;28;4387;-64
2023/01/02 00:40:02;;;;;;;8.13;3.15;;;;;;;12.79;100.00;100390.19;683846;28;1531;-65
2023/01/02 00:40:23;;;;;;;9.52;3.25;;;;;;;12.76;100.00;100388.50;684689;28;1259;-64
2023/01/02 00:40:44;;;;;;;9.07;3.20;;;;;;;12.72;100.00;100399.06;685302;28;1386;-65
2023/01/02 00:41:05;;;;;;;7.20;3.17;;;;;;;12.74;100.00;100392.06;684268;28;1299;-64
2023/01/02 00:41:26;;;;;;;7.78;2.90;;;;;;;12.72;100.00;100397.34;683548;28;1538;-64
2023/01/02 00:41:46;;;;;;;8.33;3.27;;;;;;;12.67;100.00;100399.16;685331;28;1340;-63
2023/01/02 00:42:06;;;;;;;8.57;3.27;;;;;;;12.61;100.00;100394.03;687723;28;1288;-63
2023/01/02 00:42:27;;;;;;;7.80;3.10;;;;;;;12.55;100.00;100384.50;687678;28;1729;-64
2023/01/02 00:42:47;;;;;;;7.43;3.30;;;;;;;12.60;100.00;100390.53;687413;28;4379;-63
2023/01/02 00:43:07;;;;;;;7.80;3.53;;;;;;;12.66;100.00;100381.69;687959;28;1458;-64
2023/01/02 00:43:28;;;;;;;8.80;3.40;;;;;;;12.63;100.00;100392.25;684970;28;1615;-63
2023/01/02 00:43:48;;;;;;;9.30;3.20;;;;;;;12.69;100.00;100386.88;685079;28;1501;-63
2023/01/02 00:44:09;;;;;;;8.40;3.20;;;;;;;12.65;100.00;100384.34;688358;28;1239;-64
2023/01/02 00:44:29;;;;;;;8.75;3.30;;;;;;;12.62;100.00;100390.50;687380;28;1353;-64
2023/01/02 00:44:50;;;;;;;7.60;3.50;;;;;;;12.60;100.00;100387.91;687898;28;1805;-65
2023/01/02 00:45:10;;;;;;;10.23;3.50;;;;;;;12.68;100.00;100393.03;688897;28;1401;-63
2023/01/02 00:45:30;;;;;;;9.90;3.20;;;;;;;12.68;100.00;100381.66;688242;28;1330;-63
2023/01/02 00:45:51;;;;;;;8.00;3.13;;;;;;;12.66;100.00;100389.56;686840;28;4322;-63
2023/01/02 00:46:11;;;;;;;9.43;3.40;;;;;;;12.65;100.00;100386.97;687699;28;1293;-64
2023/01/02 00:46:32;;;;;;;8.68;2.95;;;;;;;12.68;100.00;100379.03;687363;28;1356;-65
2023/01/02 00:46:52;;;;;;;9.07;3.20;;;;;;;12.64;100.00;100388.75;687571;28;1580;-63
2023/01/02 00:47:12;;;;;;;8.90;3.10;;;;;;;12.70;100.00;100383.38;687408;28;1337;-63
2023/01/02 00:47:33;;;;;;;7.05;2.92;;;;;;;12.78;100.00;100378.00;687882;28;1484;-63
2023/01/02 00:47:53;;;;;;;7.07;3.20;;;;;;;12.74;100.00;100379.81;687799;28;1203;-62
2023/01/02 00:48:14;;;;;;;8.32;3.40;;;;;;;12.71;100.00;100381.59;687823;28;1930;-64
2023/01/02 00:48:34;;;;;;;8.27;3.27;;;;;;;12.82;100.00;100384.03;688321;28;1875;-63
2023/01/02 00:48:54;;;;;;;7.80;3.00;;;;;;;12.80;100.00;100378.81;684325;28;4467;-64
2023/01/02 00:49:15;;;;;;;9.10;3.20;;;;;;;12.84;100.00;100375.25;685671;28;1290;-65
2023/01/02 00:49:35;;;;;;;8.53;3.27;;;;;;;12.87;100.00;100377.81;687069;28;1156;-64
2023/01/02 00:49:55;;;;;;;8.68;3.10;;;;;;;12.90;100.00;100375.16;687433;28;1300;-63
2023/01/02 00:50:16;;;;;;;8.83;3.20;;;;;;;12.86;100.00;100376.09;688217;28;1399;-64
2023/01/02 00:50:36;;;;;;;8.13;3.25;;;;;;;12.86;100.00;100377.84;688240;28;1324;-64
2023/01/02 00:50:57;;;;;;;8.27;3.20;;;;;;;12.90;100.00;100376.88;686891;28;1514;-64
2023/01/02 00:51:17;;;;;;;7.27;3.30;;;;;;;12.87;100.00;100376.97;686791;28;1406;-65
2023/01/02 00:51:37;;;;;;;7.13;3.28;;;;;;;12.83;100.00;100378.75;687432;28;1369;-64
2023/01/02 00:51:58;;;;;;;7.03;3.13;;;;;;;12.80;100.00;100378.81;686673;28;4589;-64
2023/01/02 00:52:18;;;;;;;7.82;3.08;;;;;;;12.83;100.00;100376.13;687175;28;1376;-64
2023/01/02 00:52:38;;;;;;;7.20;3.00;;;;;;;12.89;100.00;100373.41;687887;28;1409;-65
2023/01/02 00:52:59;;;;;;;8.67;3.23;;;;;;;13.06;100.00;100377.47;686484;28;1637;-64
2023/01/02 00:53:19;;;;;;;8.52;3.38;;;;;;;13.09;100.00;100369.53;686796;28;1525;-63
2023/01/02 00:53:39;;;;;;;8.27;3.10;;;;;;;13.01;100.00;100371.44;687308;28;1302;-63
2023/01/02 00:54:00;;;;;;;7.95;3.30;;;;;;;13.02;100.00;100367.94;688500;28;1316;-64
2023/01/02 00:54:20;;;;;;;7.80;3.20;;;;;;;13.02;100.00;100375.81;688618;28;1375;-64
2023/01/02 00:54:40;;;;;;;10.07;3.10;;;;;;;12.92;100.00;100368.09;682861;28;4434;-64
2023/01/02 00:55:01;;;;;;;11.05;3.17;;;;;;;12.85;100.00;100377.00;684802;28;1309;-63
2023/01/02 00:55:21;;;;;;;9.07;3.43;;;;;;;12.94;100.00;100371.56;685584;28;1155;-64
2023/01/02 00:55:45;;;;;;;10.47;3.33;;;;;;;12.94;100.00;100371.56;688867;28;1301;-63
2023/01/02 00:56:05;;;;;;;9.45;3.03;;;;;;;12.93;100.00;100369.84;687098;28;1571;-63
2023/01/02 00:56:26;;;;;;;8.10;3.28;;;;;;;12.97;100.00;100380.25;688266;28;1519;-63
2023/01/02 00:56:46;;;;;;;9.33;3.20;;;;;;;12.95;100.00;100375.06;686497;28;1212;-64
2023/01/02 00:57:06;;;;;;;8.13;3.30;;;;;;;12.90;100.00;100374.28;686878;28;1213;-63
2023/01/02 00:57:27;;;;;;;7.27;2.83;;;;;;;12.93;100.00;100374.19;688742;28;1526;-64
2023/01/02 00:57:47;;;;;;;7.73;2.70;;;;;;;12.99;100.00;100381.09;687443;28;4397;-64
2023/01/02 00:58:07;;;;;;;9.32;3.28;;;;;;;12.99;100.00;100371.47;687734;28;1334;-64
2023/01/02 00:58:28;;;;;;;8.97;3.30;;;;;;;12.98;100.00;100371.50;687914;28;1382;-63
2023/01/02 00:58:48;;;;;;;10.77;3.23;;;;;;;12.93;100.00;100374.19;688189;28;1487;-64
2023/01/02 00:59:09;;;;;;;8.57;3.00;;;;;;;12.95;100.00;100377.69;686682;28;1386;-62
2023/01/02 00:59:29;;;;;;;8.50;3.30;;;;;;;13.05;100.00;100380.97;686102;28;1850;-63
2023/01/02 00:59:49;;;;;;;9.50;3.30;;;;;;;13.06;100.00;100372.22;685521;28;1546;-63
2023/01/02 01:00:10;;;;;;;8.80;3.43;;;;;;;13.04;100.00;100374.00;685474;28;1330;-62
2023/01/02 01:00:31;;;;;;;9.25;3.55;;;;;;;13.07;100.00;100376.56;685146;28;1493;-63
2023/01/02 01:00:51;;;;;;;8.77;3.58;;;;;;;13.01;100.00;100371.44;683612;28;4573;-64
2023/01/02 01:01:12;;;;;;;8.37;3.30;;;;;;;12.92;100.00;100370.72;687396;28;1349;-64
2023/01/02 01:01:32;;;;;;;8.32;3.25;;;;;;;12.87;100.00;100367.31;688322;28;1642;-63
2023/01/02 01:01:52;;;;;;;7.73;3.03;;;;;;;12.87;100.00;100367.31;686344;28;1733;-63
2023/01/02 01:02:13;;;;;;;9.18;3.20;;;;;;;12.85;100.00;100371.75;685702;28;1371;-63
2023/01/02 01:02:33;;;;;;;7.50;3.03;;;;;;;12.86;100.00;100373.47;684968;28;1367;-62
2023/01/02 01:02:55;;;;;;;8.87;3.10;;;;;;;12.82;100.00;100373.53;685775;28;1501;-64
2023/01/02 01:03:16;;;;;;;7.75;2.75;;;;;;;12.80;100.00;100368.34;686328;28;1362;-64
2023/01/02 01:03:37;;;;;;;7.87;2.70;;;;;;;12.80;100.00;100370.94;685246;28;1323;-64
2023/01/02 01:03:57;;;;;;;9.30;2.97;;;;;;;12.82;100.00;100366.56;684546;28;4369;-64
2023/01/02 01:04:18;;;;;;;9.27;3.20;;;;;;;12.77;100.00;100369.25;686567;28;1287;-63
2023/01/02 01:04:38;;;;;;;8.43;3.33;;;;;;;12.84;100.00;100370.00;687552;28;1397;-63
2023/01/02 01:04:58;;;;;;;9.55;3.50;;;;;;;12.84;100.00;100371.78;688703;28;1483;-64
2023/01/02 01:05:19;;;;;;;8.20;3.03;;;;;;;12.94;100.00;100370.69;687896;28;1424;-63
2023/01/02 01:05:39;;;;;;;9.35;3.22;;;;;;;12.90;100.00;100369.91;687708;28;1481;-62
2023/01/02 01:06:07;;;;;;;9.23;3.70;;;;;;;12.95;100.00;100368.03;687807;28;1354;-64
2023/01/02 01:06:27;;;;;;;7.97;3.63;;;;;;;13.03;100.00;100369.63;686661;28;1331;-64
2023/01/02 01:06:47;;;;;;;8.53;3.30;;;;;;;13.11;100.00;100373.84;687376;28;4667;-62
2023/01/02 01:07:08;;;;;;;9.00;2.92;;;;;;;13.24;100.00;100374.47;687465;28;1724;-63
2023/01/02 01:07:28;;;;;;;8.47;3.00;;;;;;;13.25;100.00;100368.34;687570;28;1647;-64
2023/01/02 01:07:49;;;;;;;8.27;2.93;;;;;;;13.29;100.00;100366.50;686573;28;1789;-62
2023/01/02 01:08:09;;;;;;;10.38;3.10;;;;;;;13.34;100.00;100376.91;684523;28;1501;-63
2023/01/02 01:08:29;;;;;;;8.20;2.90;;;;;;;13.33;100.00;100375.19;684812;28;1357;-63
2023/01/02 01:08:50;;;;;;;7.60;2.80;;;;;;;13.23;100.00;100371.88;684289;28;1330;-63
2023/01/02 01:09:10;;;;;;;9.03;3.07;;;;;;;13.17;100.00;100372.88;684871;28;1535;-62
2023/01/02 01:09:31;;;;;;;7.05;2.90;;;;;;;13.23;100.00;100362.22;685046;28;1342;-63
2023/01/02 01:09:51;;;;;;;8.47;3.00;;;;;;;13.21;100.00;100368.41;683555;28;4605;-64
2023/01/02 01:10:11;;;;;;;9.73;3.05;;;;;;;13.23;100.00;100366.63;687787;28;1278;-63
2023/01/02 01:10:34;;;;;;;9.30;2.80;;;;;;;13.23;100.00;100371.88;688083;28;1373;-64
2023/01/02 01:10:55;;;;;;;8.65;3.00;;;;;;;13.25;100.00;100363.09;687819;28;1622;-63
2023/01/02 01:11:16;;;;;;;6.07;2.90;;;;;;;13.25;100.00;100368.34;685758;28;1291;-63
2023/01/02 01:11:36;;;;;;;9.07;3.13;;;;;;;13.28;100.00;100365.63;684954;28;1436;-63
2023/01/02 01:11:57;;;;;;;9.60;3.30;;;;;;;13.22;100.00;100365.78;684052;28;1195;-65
2023/01/02 01:12:17;;;;;;;9.45;3.20;;;;;;;13.18;100.00;100369.38;684901;28;1566;-64
2023/01/02 01:12:37;;;;;;;9.40;3.17;;;;;;;13.15;100.00;100365.91;685108;28;1215;-63
2023/01/02 01:12:58;;;;;;;8.40;3.10;;;;;;;13.16;100.00;100363.25;687420;28;4345;-63
2023/01/02 01:13:18;;;;;;;8.32;3.13;;;;;;;13.16;100.00;100370.28;688128;28;1281;-63
2023/01/02 01:13:39;;;;;;;7.90;2.93;;;;;;;13.13;100.00;100376.44;688109;28;1404;-63
2023/01/02 01:14:00;;;;;;;8.60;3.30;;;;;;;13.25;100.00;100370.97;687879;28;1174;-63
2023/01/02 01:14:20;;;;;;;9.85;3.05;;;;;;;13.36;100.00;100372.50;688564;28;1554;-63
2023/01/02 01:14:40;;;;;;;10.67;3.17;;;;;;;13.41;100.00;100368.03;688511;28;1306;-63
2023/01/02 01:15:01;;;;;;;6.82;2.92;;;;;;;13.37;100.00;100369.00;687624;28;1329;-62
2023/01/02 01:15:21;;;;;;;7.37;3.00;;;;;;;13.33;100.00;100369.94;687844;28;1581;-63
2023/01/02 01:15:43;;;;;;;8.47;3.20;;;;;;;13.30;100.00;100362.97;687164;28;4436;-63
2023/01/02 01:16:09;;;;;;;8.32;3.20;;;;;;;13.27;100.00;100368.28;686899;28;1334;-63
2023/01/02 01:16:29;;;;;;;9.55;3.10;;;;;;;13.27;100.00;100370.91;686950;28;4212;-64
2023/01/02 01:16:49;;;;;;;8.67;2.90;;;;;;;13.20;100.00;100362.31;687887;28;1457;-63
2023/01/02 01:17:10;;;;;;;8.63;3.17;;;;;;;13.17;100.00;100362.38;687171;28;1450;-63
2023/01/02 01:17:31;;;;;;;9.20;3.20;;;;;;;13.20;100.00;100367.56;688137;28;1923;-62
2023/01/02 01:17:51;;;;;;;8.52;3.17;;;;;;;13.22;100.00;100365.78;688143;28;1302;-65
2023/01/02 01:18:12;;;;;;;6.60;3.00;;;;;;;13.16;100.00;100358.00;687924;28;1331;-62
2023/01/02 01:18:32;;;;;;;7.13;3.30;;;;;;;13.18;100.00;100364.13;685352;28;1302;-62
2023/01/02 01:18:56;;;;;;;8.77;3.50;;;;;;;13.14;100.00;100357.19;685136;28;4462;-63
2023/01/02 01:19:17;;;;;;;8.43;3.00;;;;;;;13.11;100.00;100367.72;685520;28;1310;-63
2023/01/02 01:19:37;;;;;;;7.50;2.73;;;;;;;13.14;100.00;100362.44;686385;28;1452;-64
2023/01/02 01:19:57;;;;;;;7.70;2.97;;;;;;;13.10;100.00;100361.63;687887;28;1099;-63
2023/01/02 01:20:18;;;;;;;7.20;2.93;;;;;;;13.18;100.00;100371.09;688279;28;1383;-63
2023/01/02 01:20:38;;;;;;;8.68;3.10;;;;;;;13.22;100.00;100365.78;691566;28;1195;-62
2023/01/02 01:21:08;;;;;;;8.83;3.40;;;;;;;13.25;100.00;100367.44;688489;28;1287;-63
2023/01/02 01:21:28;;;;;;;10.60;2.97;;;;;;;13.18;100.00;100369.38;686689;28;1482;-63
2023/01/02 01:21:49;;;;;;;9.20;3.03;;;;;;;13.10;100.00;100368.66;687341;28;4378;-64
2023/01/02 01:22:09;;;;;;;9.10;3.27;;;;;;;13.05;100.00;100373.97;687212;28;1260;-64
2023/01/02 01:22:30;;;;;;;8.68;2.85;;;;;;;12.99;100.00;100371.47;688205;28;1537;-63
2023/01/02 01:22:50;;;;;;;8.33;3.50;;;;;;;12.93;100.00;100374.19;687311;28;1327;-63
2023/01/02 01:23:10;;;;;;;7.37;3.20;;;;;;;12.89;100.00;100378.66;688822;28;1046;-63
2023/01/02 01:23:31;;;;;;;7.10;2.93;;;;;;;12.98;100.00;100382.00;688358;28;1575;-65
2023/01/02 01:23:53;;;;;;;9.17;3.20;;;;;;;12.93;100.00;100377.72;688086;28;1765;-65
2023/01/02 01:24:14;;;;;;;7.45;3.03;;;;;;;12.96;100.00;100379.41;687590;28;1396;-65
2023/01/02 01:24:34;;;;;;;8.50;3.28;;;;;;;12.95;100.00;100377.69;687852;28;1486;-63
2023/01/02 01:24:55;;;;;;;9.65;3.20;;;;;;;13.11;100.00;100383.47;688252;28;4394;-63
2023/01/02 01:25:15;;;;;;;9.13;3.40;;;;;;;13.09;100.00;100380.03;687571;28;1131;-65
2023/01/02 01:25:36;;;;;;;9.05;3.17;;;;;;;13.02;100.00;100386.31;686167;28;2252;-65
2023/01/02 01:25:56;;;;;;;7.30;3.07;;;;;;;13.01;100.00;100376.69;681729;28;1306;-63
2023/01/02 01:26:17;;;;;;;9.10;3.10;;;;;;;12.98;100.00;100374.13;679609;29;1252;-63
2023/01/02 01:26:37;;;;;;;8.80;3.20;;;;;;;13.09;100.00;100374.78;680108;29;1575;-64
2023/01/02 01:26:57;;;;;;;8.25;3.10;;;;;;;13.14;100.00;100378.19;679786;29;1728;-62
2023/01/02 01:27:18;;;;;;;7.87;2.83;;;;;;;13.12;100.00;100369.47;680655;29;1284;-64
2023/01/02 01:27:38;;;;;;;7.55;2.95;;;;;;;13.08;100.00;100375.66;681891;28;1397;-63
2023/01/02 01:27:58;;;;;;;9.47;2.90;;;;;;;13.11;100.00;100381.72;686904;28;4487;-63
2023/01/02 01:28:19;;;;;;;10.33;3.00;;;;;;;13.09;100.00;100373.00;690352;28;1462;-64
2023/01/02 01:28:39;;;;;;;9.67;3.23;;;;;;;13.03;100.00;100370.53;690810;28;1438;-63
2023/01/02 01:29:00;;;;;;;7.50;3.00;;;;;;;13.06;100.00;100373.06;690279;28;1297;-64
2023/01/02 01:29:21;;;;;;;6.85;2.88;;;;;;;13.03;100.00;100367.00;687531;28;1706;-63
2023/01/02 01:29:41;;;;;;;6.53;3.00;;;;;;;12.98;100.00;100374.97;687996;28;1377;-64
2023/01/02 01:30:04;;;;;;;6.65;2.75;;;;;;;13.07;100.00;100379.19;688755;28;1371;-64
2023/01/02 01:30:24;;;;;;;8.60;2.65;;;;;;;13.16;100.00;100370.28;688023;28;1747;-63
2023/01/02 01:30:44;;;;;;;9.33;3.00;;;;;;;13.16;100.00;100375.53;687499;28;4422;-64
2023/01/02 01:31:09;;;;;;;8.93;3.10;;;;;;;13.07;100.00;100368.69;688144;28;1332;-63
2023/01/02 01:31:29;;;;;;;9.88;3.20;;;;;;;13.06;100.00;100367.81;687203;28;1411;-65
2023/01/02 01:31:49;;;;;;;9.02;3.15;;;;;;;13.12;100.00;100364.22;686372;28;1437;-64
2023/01/02 01:32:10;;;;;;;7.30;3.03;;;;;;;13.07;100.00;100368.69;688284;28;1183;-63
2023/01/02 01:32:30;;;;;;;8.57;2.97;;;;;;;13.05;100.00;100367.88;688113;28;1523;-64
2023/01/02 01:32:51;;;;;;;8.27;3.00;;;;;;;13.05;100.00;100368.72;688042;28;1570;-66
2023/01/02 01:33:11;;;;;;;8.40;2.90;;;;;;;13.03;100.00;100369.63;688019;28;1336;-65
2023/01/02 01:33:32;;;;;;;8.82;3.22;;;;;;;12.95;100.00;100365.41;684878;28;1607;-64
2023/01/02 01:33:53;;;;;;;8.57;3.00;;;;;;;13.04;100.00;100372.25;687748;28;4317;-65
2023/01/02 01:34:13;;;;;;;8.15;3.03;;;;;;;13.08;100.00;100370.41;687574;28;1483;-64
2023/01/02 01:34:34;;;;;;;7.97;3.00;;;;;;;13.20;100.00;100364.06;687528;28;1966;-64
2023/01/02 01:34:54;;;;;;;8.30;2.80;;;;;;;13.17;100.00;100372.88;685244;28;1807;-64
2023/01/02 01:35:15;;;;;;;8.30;2.90;;;;;;;13.14;100.00;100367.69;685422;28;1284;-65
2023/01/02 01:35:35;;;;;;;7.03;3.00;;;;;;;13.19;100.00;100372.84;682004;28;1560;-62
2023/01/02 01:35:59;;;;;;;7.70;3.10;;;;;;;13.25;100.00;100370.06;682367;28;1449;-64
2023/01/02 01:36:25;;;;;;;8.48;3.10;;;;;;;13.29;100.00;100382.25;683280;28;1580;-63
2023/01/02 01:36:45;;;;;;;8.90;2.85;;;;;;;13.42;100.00;100377.66;682792;28;4713;-63
2023/01/02 01:37:05;;;;;;;8.80;3.10;;;;;;;13.38;100.00;100376.00;683690;28;1097;-64
2023/01/02 01:37:26;;;;;;;8.80;3.22;;;;;;;13.44;100.00;100378.47;686043;28;1534;-65